Time;durP1;ratioP1;P1;durP2;ratioP2;P2;SDS_P1;SDS_P2;PMS_P1;PMS_P2;Temp;Humidity;BMP_temperature;BMP_pressure;BME280_temperature;BME280_humidity;BME280_pressure;Samples;Min_cycle;Max_cycle;Signal;HPM_P1;HPM_P2
2023/10/29 00:00:02;;;;;;;3.60;1.50;;;;;;;11.09;65.27;94688.19;5068092;28;20157;-72
2023/10/29 00:02:28;;;;;;;5.78;1.67;;;;;;;11.03;65.67;94687.88;5069110;28;20097;-72
2023/10/29 00:04:53;;;;;;;3.63;1.50;;;;;;;11.14;65.60;94693.81;5066726;28;20458;-72
2023/10/29 00:07:19;;;;;;;4.05;1.55;;;;;;;11.21;65.21;94695.84;5066278;28;20486;-72
2023/10/29 00:09:44;;;;;;;4.28;1.60;;;;;;;11.11;65.21;94701.84;5051002;28;20024;-72
2023/10/29 00:12:10;;;;;;;5.38;1.65;;;;;;;11.30;65.14;94695.06;5050450;28;20473;-72
2023/10/29 00:14:35;;;;;;;4.35;1.48;;;;;;;11.07;64.85;94684.88;5068645;28;20055;-72
2023/10/29 00:17:00;;;;;;;2.47;1.10;;;;;;;10.96;65.38;94709.19;5065571;28;20649;-72
2023/10/29 00:19:26;;;;;;;3.28;1.38;;;;;;;11.07;64.95;94707.47;5050376;28;20036;-72
2023/10/29 00:21:53;;;;;;;2.63;1.30;;;;;;;11.12;64.67;94703.50;5067914;28;20044;-72
2023/10/29 00:24:18;;;;;;;4.80;1.35;;;;;;;10.95;65.13;94704.97;5067044;28;20090;-72
2023/10/29 00:26:44;;;;;;;4.55;1.40;;;;;;;10.94;65.71;94689.47;5067494;28;20039;-72
2023/10/29 00:29:09;;;;;;;3.85;1.40;;;;;;;10.92;65.49;94691.38;5069578;28;20194;-72
2023/10/29 00:31:35;;;;;;;2.75;1.10;;;;;;;10.92;65.42;94692.22;5069356;28;20032;-72
2023/10/29 00:34:00;;;;;;;2.80;1.20;;;;;;;11.03;65.38;94704.31;5050476;28;20025;-72
2023/10/29 00:36:26;;;;;;;5.45;1.92;;;;;;;11.07;65.74;94703.06;5066809;28;20348;-72
2023/10/29 00:38:51;;;;;;;5.13;1.50;;;;;;;10.92;66.01;94704.38;5066959;28;20024;-72
2023/10/29 00:41:17;;;;;;;3.78;1.30;;;;;;;10.87;66.21;94706.56;5050470;28;20036;-72
2023/10/29 00:43:43;;;;;;;2.40;1.08;;;;;;;10.84;65.50;94712.03;5047118;28;20040;-72
2023/10/29 00:46:08;;;;;;;4.22;1.30;;;;;;;10.76;65.28;94722.25;5067944;28;20521;-72
2023/10/29 00:48:34;;;;;;;6.30;1.65;;;;;;;10.89;65.07;94728.03;5065087;28;20033;-72
2023/10/29 00:50:59;;;;;;;2.47;1.38;;;;;;;10.79;65.23;94722.00;5066763;28;20040;-72
2023/10/29 00:53:25;;;;;;;3.15;1.30;;;;;;;10.63;65.02;94719.88;5049278;28;20043;-72
2023/10/29 00:55:50;;;;;;;3.95;1.08;;;;;;;10.60;65.42;94727.91;5067324;28;20036;-72
2023/10/29 00:58:16;;;;;;;3.42;1.42;;;;;;;10.42;65.51;94736.31;5065827;28;20029;-72
2023/10/29 01:00:42;;;;;;;3.33;1.15;;;;;;;10.46;65.10;94734.28;5050139;28;20035;-72
2023/10/29 01:03:07;;;;;;;3.55;1.30;;;;;;;10.60;65.67;94728.72;5066264;28;20044;-72
2023/10/29 01:05:33;;;;;;;4.38;1.20;;;;;;;10.60;65.23;94723.53;5049368;28;20518;-72
2023/10/29 01:07:59;;;;;;;3.55;1.20;;;;;;;10.62;65.67;94723.44;5045494;28;20080;-72
2023/10/29 01:10:24;;;;;;;3.17;1.15;;;;;;;10.47;65.97;94718.56;5044912;28;20503;-72
2023/10/29 01:12:49;;;;;;;4.68;1.30;;;;;;;10.51;65.53;94719.13;5067557;28;20055;-72
2023/10/29 01:15:15;;;;;;;5.00;1.20;;;;;;;10.48;65.61;94733.19;5067586;28;20461;-72
2023/10/29 01:17:41;;;;;;;3.35;1.10;;;;;;;10.65;65.07;94723.97;5047966;28;20024;-72
2023/10/29 01:20:07;;;;;;;3.53;1.38;;;;;;;10.67;64.74;94736.81;5032979;28;20028;-72
2023/10/29 01:22:33;;;;;;;2.55;1.10;;;;;;;10.15;65.84;94728.19;5066275;28;20035;-72
2023/10/29 01:24:59;;;;;;;2.42;1.02;;;;;;;10.25;65.96;94735.09;5047344;28;20111;-72
2023/10/29 01:27:24;;;;;;;3.42;1.05;;;;;;;10.35;66.36;94721.34;5063394;28;20416;-72
2023/10/29 01:29:49;;;;;;;2.42;1.05;;;;;;;10.33;66.26;94726.66;5030562;28;20446;-72
2023/10/29 01:32:15;;;;;;;5.22;1.67;;;;;;;10.60;66.42;94728.72;5066702;28;20029;-72
2023/10/29 01:34:40;;;;;;;4.03;1.63;;;;;;;10.51;66.07;94730.34;5064331;28;20024;-72
2023/10/29 01:37:06;;;;;;;3.65;1.10;;;;;;;10.65;65.43;94733.56;5047853;28;20048;-72
2023/10/29 01:39:31;;;;;;;5.18;1.40;;;;;;;10.68;65.32;94730.69;5065604;28;20024;-72
2023/10/29 01:41:57;;;;;;;4.18;1.40;;;;;;;10.73;65.15;94731.94;5065910;28;20039;-72
2023/10/29 01:44:23;;;;;;;4.65;1.30;;;;;;;10.95;64.58;94724.94;5065829;28;20036;-72
2023/10/29 01:46:49;;;;;;;2.47;1.08;;;;;;;11.03;63.63;94729.44;5063928;28;20047;-72
2023/10/29 01:49:14;;;;;;;5.07;1.63;;;;;;;11.08;63.85;94729.88;5066462;28;20583;-72
2023/10/29 01:51:40;;;;;;;4.38;1.67;;;;;;;10.93;64.24;94725.06;5064786;28;20516;-72
2023/10/29 01:54:06;;;;;;;3.55;1.30;;;;;;;10.94;64.03;94734.47;5065868;28;20041;-72
2023/10/29 01:56:31;;;;;;;3.97;1.30;;;;;;;10.95;63.87;94733.53;5047980;28;20494;-72
2023/10/29 01:58:57;;;;;;;5.78;1.70;;;;;;;10.82;64.33;94747.72;5064477;28;20475;-72
2023/10/29 02:01:23;;;;;;;5.22;1.27;;;;;;;10.94;63.91;94736.25;5065600;28;20452;-72
2023/10/29 02:03:48;;;;;;;6.43;1.48;;;;;;;10.85;63.88;94745.66;5064749;28;20040;-72
2023/10/29 02:06:17;;;;;;;3.05;1.20;;;;;;;11.00;63.78;94742.72;5066974;28;20094;-72
2023/10/29 02:08:42;;;;;;;3.40;1.50;;;;;;;10.68;64.48;94731.50;5045100;28;20171;-72
2023/10/29 02:11:08;;;;;;;5.75;1.58;;;;;;;11.04;63.71;94737.13;5065200;28;20033;-72
2023/10/29 02:13:33;;;;;;;2.47;1.30;;;;;;;11.13;63.35;94748.50;5065457;28;20413;-72
2023/10/29 02:15:59;;;;;;;3.40;1.30;;;;;;;10.98;63.01;94750.66;5048696;28;20039;-72
2023/10/29 02:18:24;;;;;;;3.90;1.27;;;;;;;10.53;64.47;94753.59;5046733;28;20052;-72
2023/10/29 02:20:49;;;;;;;4.47;1.40;;;;;;;10.45;64.53;94761.19;5065277;28;20033;-72
2023/10/29 02:23:15;;;;;;;2.25;1.23;;;;;;;10.37;64.80;94766.22;5066975;28;20024;-72
2023/10/29 02:25:40;;;;;;;4.50;1.60;;;;;;;10.12;65.62;94754.38;5047828;28;20036;-72
2023/10/29 02:28:07;;;;;;;2.30;1.10;;;;;;;10.15;65.78;94764.50;5065351;28;20043;-72
2023/10/29 02:30:32;;;;;;;2.45;1.30;;;;;;;10.10;66.23;94767.47;5064947;28;20037;-72
2023/10/29 02:32:58;;;;;;;3.53;1.50;;;;;;;10.04;65.81;94767.97;5065518;28;20031;-72
2023/10/29 02:35:23;;;;;;;2.70;1.10;;;;;;;9.69;66.19;94753.47;5063664;28;20120;-72
2023/10/29 02:37:49;;;;;;;5.47;1.40;;;;;;;9.93;66.50;94768.03;5047164;28;20033;-71
2023/10/29 02:40:14;;;;;;;3.03;1.52;;;;;;;10.03;65.98;94771.53;5046242;28;20040;-72
2023/10/29 02:42:40;;;;;;;3.08;1.65;;;;;;;9.92;66.11;94763.78;5064892;28;20038;-72
2023/10/29 02:45:06;;;;;;;4.85;1.70;;;;;;;9.89;67.51;94777.84;5034301;28;20473;-72
2023/10/29 02:47:31;;;;;;;3.13;1.17;;;;;;;9.71;67.31;94772.34;5067209;28;20028;-72
2023/10/29 02:49:56;;;;;;;3.35;1.13;;;;;;;9.53;67.55;94773.81;5067229;28;20029;-72
2023/10/29 02:52:23;;;;;;;4.65;1.20;;;;;;;9.69;67.64;94779.41;5052680;28;20102;-72
2023/10/29 02:54:49;;;;;;;3.20;1.10;;;;;;;9.74;67.30;94771.28;5048630;28;20036;-72
2023/10/29 02:57:14;;;;;;;2.38;1.20;;;;;;;9.78;66.20;94781.28;5068183;28;20086;-71
2023/10/29 02:59:40;;;;;;;5.00;1.02;;;;;;;9.63;66.98;94772.13;5052064;28;20086;-72
2023/10/29 03:02:05;;;;;;;3.75;1.10;;;;;;;9.61;67.33;94776.59;5050978;28;20160;-72
2023/10/29 03:04:33;;;;;;;2.90;1.13;;;;;;;9.53;67.71;94773.81;5068480;28;20025;-72
2023/10/29 03:06:58;;;;;;;3.17;1.20;;;;;;;9.68;67.69;94772.59;5049759;28;20534;-72
2023/10/29 03:09:23;;;;;;;5.68;1.40;;;;;;;9.72;68.20;94774.00;5068548;28;20037;-72
2023/10/29 03:11:49;;;;;;;5.50;2.10;;;;;;;9.92;68.52;94774.16;5052114;28;20028;-72
2023/10/29 03:14:14;;;;;;;3.65;1.20;;;;;;;9.87;67.61;94778.91;5068836;28;20041;-72
2023/10/29 03:16:40;;;;;;;4.13;2.20;;;;;;;9.98;67.98;94786.66;5068309;28;20479;-72
2023/10/29 03:19:05;;;;;;;3.97;1.92;;;;;;;10.01;67.88;94789.00;5067285;28;20056;-72
2023/10/29 03:21:30;;;;;;;5.72;1.75;;;;;;;10.34;67.58;94785.47;5035146;28;20040;-72
2023/10/29 03:23:56;;;;;;;4.45;2.05;;;;;;;10.28;67.78;94778.19;5068598;28;20028;-72
2023/10/29 03:26:21;;;;;;;5.15;2.20;;;;;;;10.46;67.49;94794.00;5068725;28;20035;-72
2023/10/29 03:28:47;;;;;;;6.18;2.55;;;;;;;10.50;67.40;94785.84;5050858;28;20414;-72
2023/10/29 03:31:16;;;;;;;6.07;2.30;;;;;;;10.55;67.33;94785.44;5053379;28;20036;-72
2023/10/29 03:33:41;;;;;;;5.25;2.10;;;;;;;10.60;67.24;94788.47;5054161;28;20067;-72
2023/10/29 03:36:07;;;;;;;5.38;1.90;;;;;;;10.32;67.53;94786.53;5036262;28;20453;-72
2023/10/29 03:38:33;;;;;;;3.90;2.00;;;;;;;10.42;67.59;94808.16;5051823;28;20024;-72
2023/10/29 03:40:58;;;;;;;4.30;2.17;;;;;;;10.40;67.70;94813.50;5036520;28;20036;-72
2023/10/29 03:43:24;;;;;;;4.32;1.88;;;;;;;10.53;67.48;94815.94;5036484;28;20036;-72
2023/10/29 03:45:49;;;;;;;4.80;2.35;;;;;;;10.43;67.75;94796.84;5070667;28;20032;-72
2023/10/29 03:48:15;;;;;;;4.90;2.05;;;;;;;10.55;67.95;94813.19;5036760;28;20024;-72
2023/10/29 03:50:41;;;;;;;5.88;2.22;;;;;;;10.40;68.44;94812.69;5055506;28;20033;-72
2023/10/29 03:53:07;;;;;;;4.35;2.10;;;;;;;10.49;67.91;94824.91;5071935;28;20397;-72
2023/10/29 03:55:35;;;;;;;5.43;2.22;;;;;;;10.51;68.01;94812.63;5053817;28;20483;-72
2023/10/29 03:58:01;;;;;;;3.78;2.20;;;;;;;10.59;67.63;94792.03;5054012;28;20044;-72
2023/10/29 04:00:26;;;;;;;6.10;2.13;;;;;;;10.51;68.08;94797.03;5071788;28;20426;-72
2023/10/29 04:02:51;;;;;;;5.53;1.98;;;;;;;10.56;67.76;94794.91;5071074;28;20035;-72
2023/10/29 04:05:17;;;;;;;4.68;1.83;;;;;;;10.56;67.75;94804.44;5072792;28;20040;-72
2023/10/29 04:07:42;;;;;;;5.28;2.22;;;;;;;10.45;67.83;94794.97;5054565;28;20055;-72
2023/10/29 04:10:08;;;;;;;4.93;2.20;;;;;;;10.28;68.11;94780.78;5054534;28;20028;-72
2023/10/29 04:12:34;;;;;;;4.80;2.30;;;;;;;10.51;68.01;94805.66;5038098;28;20490;-72
2023/10/29 04:14:59;;;;;;;3.92;2.17;;;;;;;10.49;68.48;94815.34;5071211;28;20039;-72
2023/10/29 04:17:25;;;;;;;5.82;2.10;;;;;;;10.50;68.01;94805.78;5054447;28;20522;-72
2023/10/29 04:19:50;;;;;;;6.40;2.35;;;;;;;10.50;68.18;94813.56;5070898;28;20053;-72
2023/10/29 04:22:16;;;;;;;4.85;2.17;;;;;;;10.45;68.05;94808.75;5051073;28;20491;-72
2023/10/29 04:24:41;;;;;;;4.07;2.15;;;;;;;10.48;68.20;94824.09;5068047;28;20028;-72
2023/10/29 04:27:06;;;;;;;6.88;2.35;;;;;;;10.50;67.94;94816.16;5072440;28;20039;-72
2023/10/29 04:29:32;;;;;;;5.18;2.17;;;;;;;10.44;67.79;94795.91;5054083;28;20032;-72
2023/10/29 04:31:57;;;;;;;3.33;1.85;;;;;;;10.57;67.79;94812.13;5071170;28;20487;-72
2023/10/29 04:34:23;;;;;;;5.45;2.47;;;;;;;10.49;67.61;94806.72;5054228;28;20414;-72
2023/10/29 04:36:51;;;;;;;5.40;2.25;;;;;;;10.47;67.63;94804.28;5070314;28;20032;-72
2023/10/29 04:39:20;;;;;;;3.38;1.95;;;;;;;10.48;67.70;94815.47;5046805;28;20044;-72
2023/10/29 04:41:46;;;;;;;4.03;1.98;;;;;;;10.54;67.48;94809.78;5052690;28;20029;-72
2023/10/29 04:44:12;;;;;;;5.15;2.10;;;;;;;10.48;67.07;94805.09;5057639;28;20035;-72
2023/10/29 04:46:37;;;;;;;5.00;1.98;;;;;;;10.32;67.69;94820.28;5033921;28;20080;-72
2023/10/29 04:49:03;;;;;;;4.05;2.10;;;;;;;10.22;67.47;94813.22;5051840;28;20028;-72
2023/10/29 04:51:30;;;;;;;5.88;2.08;;;;;;;10.17;67.15;94825.75;5054403;28;20029;-72
2023/10/29 04:53:55;;;;;;;6.47;1.83;;;;;;;10.33;67.32;94827.13;5070860;28;20047;-72
2023/10/29 04:56:20;;;;;;;5.88;2.53;;;;;;;10.38;67.01;94823.19;5070872;28;20483;-72
2023/10/29 04:58:46;;;;;;;3.67;1.88;;;;;;;10.52;66.58;94827.25;5070764;28;20036;-72
2023/10/29 05:01:11;;;;;;;6.20;2.08;;;;;;;10.25;65.76;94794.78;5072069;28;20310;-72
2023/10/29 05:03:37;;;;;;;7.38;2.63;;;;;;;10.23;66.03;94842.59;5053912;28;20044;-72
2023/10/29 05:06:03;;;;;;;5.25;2.42;;;;;;;10.22;65.31;94818.41;5070608;28;20510;-72
2023/10/29 05:08:29;;;;;;;5.75;2.00;;;;;;;10.10;65.88;94842.75;5070368;28;20024;-72
2023/10/29 05:10:55;;;;;;;3.88;2.00;;;;;;;10.25;65.46;94853.66;5070601;28;20021;-72
2023/10/29 05:13:20;;;;;;;5.82;2.03;;;;;;;10.05;66.35;94863.06;5070434;28;20505;-72
2023/10/29 05:15:46;;;;;;;6.05;2.28;;;;;;;10.19;65.79;94861.94;5070854;28;20036;-72
2023/10/29 05:18:11;;;;;;;5.40;2.25;;;;;;;10.05;66.13;94873.44;5053465;28;20106;-72
2023/10/29 05:20:37;;;;;;;6.75;2.10;;;;;;;10.07;66.25;94887.94;5070049;28;20028;-72
2023/10/29 05:23:03;;;;;;;6.20;1.95;;;;;;;10.04;66.00;94880.41;5070406;28;20107;-72
2023/10/29 05:25:28;;;;;;;2.58;1.38;;;;;;;10.02;66.33;94873.69;5052938;28;20032;-71
2023/10/29 05:27:54;;;;;;;8.52;2.17;;;;;;;10.00;66.34;94875.56;5070148;28;20043;-71
2023/10/29 05:30:20;;;;;;;5.00;2.00;;;;;;;9.92;66.58;94880.53;5053592;28;20107;-71
2023/10/29 05:32:45;;;;;;;4.90;1.80;;;;;;;9.84;66.84;94886.34;5053390;28;20570;-72
2023/10/29 05:35:10;;;;;;;2.13;1.40;;;;;;;9.93;66.38;94895.19;5070271;28;20025;-71
2023/10/29 05:37:36;;;;;;;3.53;1.63;;;;;;;9.91;66.31;94894.47;5070122;28;20032;-71
2023/10/29 05:40:04;;;;;;;5.75;1.80;;;;;;;9.55;67.67;94897.22;5037028;28;20078;-71
2023/10/29 05:42:30;;;;;;;3.40;1.77;;;;;;;9.40;68.59;94904.41;5069790;28;20550;-71
2023/10/29 05:44:55;;;;;;;5.25;2.15;;;;;;;9.49;68.71;94902.88;5053596;28;20074;-71
2023/10/29 05:47:20;;;;;;;4.90;1.95;;;;;;;9.49;68.70;94895.09;5071078;28;20041;-71
2023/10/29 05:49:46;;;;;;;4.15;1.77;;;;;;;9.52;69.11;94892.25;5053492;28;20433;-72
2023/10/29 05:52:11;;;;;;;6.22;2.05;;;;;;;9.62;68.97;94897.59;5070890;28;20505;-71
2023/10/29 05:54:37;;;;;;;3.20;1.60;;;;;;;9.76;68.68;94906.88;5070081;28;20031;-71
2023/10/29 05:57:02;;;;;;;3.40;1.67;;;;;;;9.78;68.54;94911.00;5071080;28;20025;-71
2023/10/29 05:59:28;;;;;;;5.45;2.20;;;;;;;9.87;68.22;94926.81;5069803;28;20414;-71
2023/10/29 06:01:53;;;;;;;4.40;1.90;;;;;;;9.98;67.27;94913.81;5052770;28;20032;-71
2023/10/29 06:04:19;;;;;;;6.47;2.00;;;;;;;10.05;67.10;94925.34;5062117;28;20111;-71
2023/10/29 06:06:44;;;;;;;3.63;1.77;;;;;;;10.14;66.68;94929.81;5065016;28;20422;-71
2023/10/29 06:09:10;;;;;;;5.07;1.75;;;;;;;10.29;66.65;94923.44;5032888;28;20028;-71
2023/10/29 06:11:36;;;;;;;5.45;2.35;;;;;;;10.26;66.44;94928.03;5065156;28;20086;-71
2023/10/29 06:14:02;;;;;;;5.22;1.92;;;;;;;10.26;66.44;94913.25;5065437;28;20025;-72
2023/10/29 06:16:28;;;;;;;5.15;1.63;;;;;;;10.40;66.26;94924.34;5070406;28;21529;-72
2023/10/29 06:18:53;;;;;;;6.53;1.60;;;;;;;10.59;65.54;94931.50;5066253;28;20047;-71
2023/10/29 06:21:21;;;;;;;4.63;1.63;;;;;;;10.69;65.27;94927.19;5062329;28;20094;-71
2023/10/29 06:23:47;;;;;;;3.72;1.42;;;;;;;10.70;65.05;94931.44;5066696;28;20368;-71
2023/10/29 06:26:12;;;;;;;6.15;1.83;;;;;;;10.84;65.07;94940.72;5065873;28;20038;-71
2023/10/29 06:28:38;;;;;;;4.63;1.75;;;;;;;10.84;64.79;94944.13;5068533;28;20036;-70
2023/10/29 06:31:04;;;;;;;4.43;2.10;;;;;;;10.79;65.70;94948.88;5064215;28;20340;-71
2023/10/29 06:33:29;;;;;;;4.32;2.00;;;;;;;10.84;65.90;94943.31;5067230;28;20031;-71
2023/10/29 06:35:57;;;;;;;5.50;2.28;;;;;;;11.17;64.82;94950.09;5036702;28;20054;-71
2023/10/29 06:38:24;;;;;;;4.68;2.03;;;;;;;11.34;64.78;94943.50;5060899;28;20100;-71
2023/10/29 06:40:49;;;;;;;6.50;2.15;;;;;;;11.60;64.19;94942.13;5063204;28;20036;-72
2023/10/29 06:43:15;;;;;;;6.70;2.60;;;;;;;12.16;63.07;94937.41;5064273;28;20070;-71
2023/10/29 06:45:40;;;;;;;4.97;2.28;;;;;;;12.48;62.06;94956.25;5032569;28;20033;-71
2023/10/29 06:48:05;;;;;;;5.10;2.17;;;;;;;12.98;60.59;94952.69;5066573;28;20029;-72
2023/10/29 06:50:31;;;;;;;7.53;3.10;;;;;;;13.17;60.13;94951.84;5064102;28;20404;-71
2023/10/29 06:52:56;;;;;;;6.35;2.65;;;;;;;13.04;60.17;94946.09;5064811;28;20016;-71
2023/10/29 06:55:23;;;;;;;4.22;2.00;;;;;;;13.48;58.80;94968.16;5065451;28;20044;-71
2023/10/29 06:57:49;;;;;;;5.93;1.90;;;;;;;14.05;56.89;94965.53;5064664;28;20020;-71
2023/10/29 07:00:15;;;;;;;5.75;2.00;;;;;;;14.49;55.83;94963.09;5064513;28;20051;-72
2023/10/29 07:02:40;;;;;;;4.25;1.65;;;;;;;14.59;55.40;94956.03;5063144;28;20047;-71
2023/10/29 07:05:06;;;;;;;5.55;1.77;;;;;;;14.75;54.88;94961.41;5065060;28;20094;-71
2023/10/29 07:07:34;;;;;;;5.47;1.92;;;;;;;15.25;53.80;94965.28;5045366;28;20029;-72
2023/10/29 07:10:03;;;;;;;3.95;1.58;;;;;;;16.04;52.06;94956.44;5066523;28;20501;-71
2023/10/29 07:12:29;;;;;;;5.47;2.40;;;;;;;16.88;49.39;94953.94;5046331;28;20025;-71
2023/10/29 07:14:56;;;;;;;4.90;1.85;;;;;;;17.67;47.57;94970.03;5065714;28;20039;-72
2023/10/29 07:17:21;;;;;;;6.15;2.30;;;;;;;18.14;45.54;94961.41;5048347;28;20036;-72
2023/10/29 07:19:47;;;;;;;5.72;2.20;;;;;;;18.08;45.35;94968.16;5048523;28;20055;-71
2023/10/29 07:22:13;;;;;;;5.97;2.45;;;;;;;18.35;45.12;94966.88;5045475;28;20036;-72
2023/10/29 07:24:38;;;;;;;6.70;2.22;;;;;;;18.94;44.06;94975.16;5065938;28;20040;-72
2023/10/29 07:44:43;;;;;;;7.70;3.17;;;;;;;23.11;35.14;94964.91;5145665;27;20394;-72
2023/10/29 07:47:08;;;;;;;8.20;3.35;;;;;;;22.11;36.41;94961.81;5146865;27;20419;-72
2023/10/29 07:49:37;;;;;;;4.85;2.47;;;;;;;22.53;36.79;94970.59;5124221;28;20496;-72
2023/10/29 07:52:04;;;;;;;8.98;3.30;;;;;;;22.66;35.82;94961.91;5122440;27;20070;-72
2023/10/29 07:54:29;;;;;;;5.07;2.53;;;;;;;21.84;36.63;94959.00;5123421;27;20031;-72
2023/10/29 07:56:55;;;;;;;7.57;2.83;;;;;;;21.22;38.35;94953.59;5123518;28;20042;-72
2023/10/29 07:59:21;;;;;;;5.45;2.50;;;;;;;20.96;38.97;94950.50;5122348;27;20107;-72
2023/10/29 08:01:46;;;;;;;7.78;2.75;;;;;;;20.16;41.08;94971.63;5121476;28;20065;-72
2023/10/29 08:04:12;;;;;;;8.38;2.90;;;;;;;19.58;42.47;94974.00;5122836;27;20039;-72
2023/10/29 08:06:37;;;;;;;4.72;2.25;;;;;;;19.62;42.42;94978.75;5122418;28;20442;-72
2023/10/29 08:09:02;;;;;;;7.07;2.58;;;;;;;19.55;42.76;94974.34;5125074;27;20031;-71
2023/10/29 08:11:28;;;;;;;6.38;2.70;;;;;;;18.90;44.10;94957.25;5120607;27;20046;-72
2023/10/29 08:13:53;;;;;;;5.65;2.30;;;;;;;19.03;44.31;94978.56;5122720;27;20088;-73
2023/10/29 08:16:19;;;;;;;5.35;2.17;;;;;;;18.55;45.44;94969.91;5120985;27;20023;-73
2023/10/29 08:18:45;;;;;;;4.93;2.58;;;;;;;18.44;45.29;94972.91;5105047;28;20035;-73
2023/10/29 08:21:10;;;;;;;6.32;2.55;;;;;;;18.70;44.38;94965.56;5121672;28;20405;-72
2023/10/29 08:23:35;;;;;;;5.57;2.30;;;;;;;18.43;45.08;94969.47;5122742;27;20096;-69
2023/10/29 08:26:01;;;;;;;4.65;2.13;;;;;;;18.13;45.37;94957.09;5122406;28;20538;-72
2023/10/29 08:28:27;;;;;;;5.07;2.15;;;;;;;18.15;45.34;94981.44;5104948;27;20465;-73
2023/10/29 08:30:54;;;;;;;7.82;2.47;;;;;;;17.97;45.75;94976.38;5125643;27;20076;-72
2023/10/29 08:33:19;;;;;;;4.38;2.75;;;;;;;18.12;45.68;94989.66;5126385;27;20460;-70
2023/10/29 08:35:45;;;;;;;3.35;1.80;;;;;;;18.23;44.61;94986.66;5125429;27;20054;-74
2023/10/29 08:38:11;;;;;;;5.50;2.00;;;;;;;17.98;45.15;94978.03;5109147;28;20039;-74
2023/10/29 08:40:36;;;;;;;4.55;2.10;;;;;;;17.81;45.26;94964.13;5125864;28;20023;-74
2023/10/29 08:43:05;;;;;;;7.93;2.28;;;;;;;18.01;45.37;94975.88;5127488;27;20050;-75
2023/10/29 08:45:30;;;;;;;10.38;2.78;;;;;;;18.16;44.98;94990.94;5094638;28;20024;-73
2023/10/29 08:47:56;;;;;;;5.90;2.42;;;;;;;17.84;45.77;94990.88;5087701;28;20039;-73
2023/10/29 08:50:21;;;;;;;4.13;2.42;;;;;;;17.86;45.37;94975.75;5110288;27;20024;-75
2023/10/29 08:52:47;;;;;;;5.85;2.20;;;;;;;17.99;44.49;94990.16;5112458;28;20035;-77
2023/10/29 08:55:14;;;;;;;5.40;2.35;;;;;;;17.80;45.57;94980.84;5114373;28;20054;-78
2023/10/29 08:57:39;;;;;;;5.63;2.10;;;;;;;17.80;44.98;94991.34;5110672;28;20032;-73
2023/10/29 09:00:05;;;;;;;7.75;2.20;;;;;;;17.83;44.55;94986.59;5110466;28;20089;-74
2023/10/29 09:02:31;;;;;;;7.28;2.40;;;;;;;17.99;44.60;94996.25;5111640;28;20039;-75
2023/10/29 09:04:57;;;;;;;6.45;2.28;;;;;;;17.93;44.98;94990.84;5112972;28;20042;-71
2023/10/29 09:07:25;;;;;;;6.57;2.53;;;;;;;18.00;44.85;94986.56;5111589;28;20035;-71
2023/10/29 09:09:50;;;;;;;8.20;2.38;;;;;;;18.02;44.77;94977.50;5094923;28;20042;-71
2023/10/29 09:12:16;;;;;;;7.97;2.38;;;;;;;18.02;44.46;94987.19;5094772;28;20036;-71
2023/10/29 09:14:41;;;;;;;4.78;1.63;;;;;;;18.29;43.48;94980.72;5093833;28;20027;-71
2023/10/29 09:17:06;;;;;;;3.25;1.80;;;;;;;18.37;43.53;94985.13;5094519;28;20019;-72
2023/10/29 09:19:32;;;;;;;4.15;1.75;;;;;;;18.36;43.48;94978.22;5111803;28;20121;-72
2023/10/29 09:21:58;;;;;;;8.80;1.70;;;;;;;18.43;43.08;94981.81;5112942;28;20400;-72
2023/10/29 09:24:23;;;;;;;5.10;1.58;;;;;;;18.43;43.30;94972.09;5111964;28;20032;-72
2023/10/29 09:26:49;;;;;;;5.03;2.08;;;;;;;18.48;43.85;94979.50;5127474;27;20027;-72
2023/10/29 09:29:16;;;;;;;4.47;1.63;;;;;;;18.76;43.48;94971.97;5110075;28;20575;-72
2023/10/29 09:31:42;;;;;;;8.43;1.75;;;;;;;18.75;42.77;94963.28;5111630;28;20019;-72
2023/10/29 09:34:07;;;;;;;6.15;2.00;;;;;;;18.87;42.12;94978.66;5109297;28;20039;-72
2023/10/29 09:36:33;;;;;;;3.42;1.67;;;;;;;19.07;42.11;94979.03;5108741;28;20073;-72
2023/10/29 09:38:58;;;;;;;3.90;1.50;;;;;;;19.20;42.02;94974.81;5104331;28;20046;-72
2023/10/29 09:41:24;;;;;;;5.43;1.65;;;;;;;18.89;43.02;94977.50;5110227;28;20019;-72
2023/10/29 09:43:51;;;;;;;3.45;1.50;;;;;;;18.96;42.27;94953.91;5105391;28;20132;-71
2023/10/29 09:46:16;;;;;;;3.95;1.40;;;;;;;18.83;42.25;94966.81;5090505;28;20032;-71
2023/10/29 09:48:42;;;;;;;4.78;1.77;;;;;;;18.89;41.97;94972.22;5091455;28;20039;-72
2023/10/29 09:51:08;;;;;;;4.82;1.92;;;;;;;18.94;42.71;94959.38;5094051;28;20027;-70
2023/10/29 09:53:36;;;;;;;4.30;1.70;;;;;;;18.90;41.71;94963.34;5110939;27;20043;-71
2023/10/29 09:56:03;;;;;;;4.82;1.73;;;;;;;19.15;41.36;94948.19;5109089;27;20023;-71
2023/10/29 09:58:28;;;;;;;4.03;1.67;;;;;;;19.19;41.77;94953.91;5093137;28;20028;-71
2023/10/29 10:00:54;;;;;;;4.57;1.50;;;;;;;19.35;41.39;94947.69;5091722;28;20515;-69
2023/10/29 10:03:20;;;;;;;7.38;2.00;;;;;;;19.39;41.50;94946.38;5106404;28;20119;-68
2023/10/29 10:05:46;;;;;;;5.93;1.63;;;;;;;19.38;40.93;94949.97;5090010;28;20059;-68
2023/10/29 10:08:11;;;;;;;3.33;1.50;;;;;;;19.38;40.30;94955.25;5145218;27;20042;-68
2023/10/29 10:10:42;;;;;;;5.65;1.70;;;;;;;19.66;39.63;94941.53;5111292;28;20081;-68
2023/10/29 10:13:08;;;;;;;7.50;1.48;;;;;;;19.66;40.12;94929.16;5111258;28;20757;-68
2023/10/29 10:15:34;;;;;;;3.38;1.35;;;;;;;19.46;40.46;94920.13;5126756;27;20065;-69
2023/10/29 10:18:04;;;;;;;4.90;1.60;;;;;;;19.47;39.76;94927.00;5144901;27;20040;-68
2023/10/29 10:20:29;;;;;;;3.42;1.60;;;;;;;19.76;38.84;94928.91;5127823;27;20028;-68
2023/10/29 10:23:04;;;;;;;3.20;1.40;;;;;;;19.70;39.18;94916.47;5094088;28;20520;-68
2023/10/29 10:25:30;;;;;;;4.32;1.30;;;;;;;19.77;38.47;94912.91;5143750;27;20031;-69
2023/10/29 10:27:57;;;;;;;6.03;1.58;;;;;;;19.69;39.32;94914.81;5111207;28;20036;-68
2023/10/29 10:30:28;;;;;;;5.50;1.85;;;;;;;19.91;38.82;94900.72;5145211;27;20057;-68
2023/10/29 10:33:07;;;;;;;4.55;1.77;;;;;;;19.83;39.39;94908.72;5144562;27;20080;-68
2023/10/29 10:35:46;;;;;;;6.95;2.30;;;;;;;19.90;39.46;94906.19;5111368;28;20030;-68
2023/10/29 10:38:12;;;;;;;7.85;1.55;;;;;;;19.77;39.93;94902.34;5127492;27;20074;-68
2023/10/29 10:40:37;;;;;;;7.25;1.73;;;;;;;19.90;38.86;94899.09;5127845;27;20023;-68
2023/10/29 10:43:04;;;;;;;4.47;1.70;;;;;;;19.84;38.90;94894.56;5093477;28;20521;-68
2023/10/29 10:45:29;;;;;;;4.28;2.10;;;;;;;19.94;38.27;94897.72;5144911;27;20027;-68
2023/10/29 10:47:56;;;;;;;7.85;2.17;;;;;;;19.88;38.82;94902.91;5144967;27;20035;-68
2023/10/29 10:50:22;;;;;;;5.18;1.55;;;;;;;19.90;38.60;94904.38;5110478;28;20028;-68
2023/10/29 10:52:49;;;;;;;3.88;1.00;;;;;;;19.90;36.80;94898.28;5110396;28;20477;-68
2023/10/29 10:55:15;;;;;;;3.55;1.27;;;;;;;20.05;36.26;94905.16;5110560;28;20035;-68
2023/10/29 10:57:40;;;;;;;2.67;1.00;;;;;;;20.14;36.36;94908.53;5127675;27;20492;-68
2023/10/29 11:00:10;;;;;;;3.63;1.17;;;;;;;20.07;37.17;94895.25;5127586;27;20413;-68
2023/10/29 11:02:36;;;;;;;3.53;0.88;;;;;;;20.11;36.84;94894.91;5111748;28;20039;-68
2023/10/29 11:05:04;;;;;;;2.75;1.02;;;;;;;20.11;35.91;94892.25;5127734;27;20104;-68
2023/10/29 11:07:29;;;;;;;4.43;1.00;;;;;;;20.23;35.96;94893.44;5144022;27;20126;-68
2023/10/29 11:09:55;;;;;;;3.53;1.20;;;;;;;20.25;36.45;94894.91;5127321;27;20099;-69
2023/10/29 11:12:20;;;;;;;3.47;1.10;;;;;;;20.48;36.92;94894.75;5109991;28;20063;-68
2023/10/29 11:15:11;;;;;;;3.25;1.10;;;;;;;20.55;36.47;94891.38;5093261;28;20015;-68
2023/10/29 11:17:54;;;;;;;;;;;;;;;20.47;35.41;94893.09;5145110;27;20544;-68
2023/10/29 11:20:49;;;;;;;3.58;1.00;;;;;;;20.36;35.58;94895.41;5111396;28;19961;-68
2023/10/29 11:23:15;;;;;;;2.92;0.90;;;;;;;20.53;33.67;94895.03;5111687;28;20504;-68
2023/10/29 11:25:41;;;;;;;2.88;0.82;;;;;;;20.58;33.79;94891.81;5110125;28;20058;-68
2023/10/29 11:28:32;;;;;;;1.85;0.80;;;;;;;20.66;34.18;94888.25;5110122;28;20035;-68
2023/10/29 11:31:13;;;;;;;6.57;1.55;;;;;;;20.71;35.25;94881.41;5111354;28;20031;-68
2023/10/29 11:33:39;;;;;;;4.65;1.40;;;;;;;20.72;34.55;94874.31;5111577;28;20043;-68
2023/10/29 11:36:31;;;;;;;4.93;1.10;;;;;;;20.74;34.01;94878.38;5110032;28;20111;-68
2023/10/29 11:39:15;;;;;;;4.28;1.00;;;;;;;20.79;33.29;94877.84;5109828;28;20044;-68
2023/10/29 11:41:44;;;;;;;3.85;1.00;;;;;;;20.73;33.15;94852.19;5111172;28;20081;-68
2023/10/29 11:44:18;;;;;;;5.45;1.08;;;;;;;20.73;33.57;94865.41;5126488;28;20062;-68
2023/10/29 11:46:56;;;;;;;3.28;1.08;;;;;;;21.01;32.49;94856.72;5109929;28;20032;-70